Ardonia, NY

8:03 PM EST on January 26, 2015 (GMT -0500)
Petepic - New Paltz | Change Station
CLOSE
Current Station
Personal Weather Station
Location: New Paltz, NY
Elevation: 364 ft
Nearby Weather Stations
Active Advisory: Winter Storm Warning

Elev 364 ft 41.73 °N, 74.06 °W | Updated 12 minutes ago

Overcast
Overcast
17.1 °F
Feels Like 8 °F
N
6.7
Wind Variable Wind from ESE

Today
High -- | Low -- °F
--% Chance of Precip.
Yesterday
High -- | Low -- °F
Precip. -- in
7:14 AM 5:03 PM
Waxing Crescent, 48% visible
Pressure 29.92 in
Visibility 9.0 miles
Clouds Mostly Cloudy 4000 ft
Overcast 5500 ft
Windchill 8 °F
Dew Point 15 °F
Humidity 91%
Rainfall 0.00 in
Snow Depth Not available.
UV 0 out of 12
Pollen .10 out of 12
Air Quality Not available.
Flu Activity Not available.
METAR KPOU 270053Z AUTO 36009KT 9SM BKN040 OVC055 M07/M11 A2992 RMK AO2 SNB05E38 SLP132 P0000 T10721111 TSNO

More Conditions Fewer Conditions

Pressure 29.92 in
Visibility 9.0 miles
Clouds Mostly Cloudy 4000 ft
Overcast 5500 ft
Windchill 8 °F
Dew Point 15 °F
Humidity 91%
Rainfall 0.00 in
Snow Depth Not available.
UV 0 out of 12
Pollen .10 out of 12
Air Quality Not available.
Flu Activity Not available.
METAR KPOU 270053Z AUTO 36009KT 9SM BKN040 OVC055 M07/M11 A2992 RMK AO2 SNB05E38 SLP132 P0000 T10721111 TSNO

More Conditions Fewer Conditions

10-Day Weather Forecast

Almanac

Astronomy

Jan. 26, 2015 Rise Set
Actual Time
Civil Twilight
Nautical Twilight
Astronomical Twilight
Moon
Length of Visible Light
Length of Day
Tomorrow will be .
, % of the Moon is Illuminated

Today's Extremes

State Highs State Lows

Community

WunderPhotos

Upload Photos

1,790,441 photos uploaded!

WunderBlogs® & News

Nearby

Air Quality

  Air Quality AQ Index Pollutant
Not available.

Snow Depth

Station Depth Elevation

Earthquake Activity

City Distance Mag. Time & Date
Minimum magnitude displayed is 2.5.

Coastal Water Temperatures

Place Temperature

Nearby Weather Stations